Time;durP1;ratioP1;P1;durP2;ratioP2;P2;SDS_P1;SDS_P2;PMS_P1;PMS_P2;Temp;Humidity;BMP_temperature;BMP_pressure;BME280_temperature;BME280_humidity;BME280_pressure;Samples;Min_cycle;Max_cycle;Signal;HPM_P1;HPM_P2
2023/04/17 00:00:02;;;;;;;54.97;36.97;;;;;;;;;;5015488;28;20176;-70
2023/04/17 00:02:28;;;;;;;50.73;38.10;;;;;;;;;;5015307;28;20665;-67
2023/04/17 00:04:54;;;;;;;44.90;36.53;;;;;;;;;;4997578;28;20196;-68
2023/04/17 00:07:21;;;;;;;49.07;36.70;;;;;;;;;;4997714;28;20234;-68
2023/04/17 00:09:47;;;;;;;54.53;37.57;;;;;;;;;;5015210;28;20179;-69
2023/04/17 00:12:13;;;;;;;48.43;35.73;;;;;;;;;;5015062;28;20184;-68
2023/04/17 00:14:39;;;;;;;44.40;36.07;;;;;;;;;;5014895;28;20207;-68
2023/04/17 00:17:05;;;;;;;51.00;37.23;;;;;;;;;;5016078;28;20183;-67
2023/04/17 00:19:31;;;;;;;48.90;37.23;;;;;;;;;;5015171;28;20627;-67
2023/04/17 00:21:57;;;;;;;51.47;37.13;;;;;;;;;;4997270;28;20213;-68
2023/04/17 00:24:23;;;;;;;52.30;38.23;;;;;;;;;;5014774;28;20258;-65
2023/04/17 00:26:49;;;;;;;46.77;36.40;;;;;;;;;;5015103;28;20184;-67
2023/04/17 00:29:15;;;;;;;45.10;36.27;;;;;;;;;;5014697;28;20176;-67
2023/04/17 00:31:42;;;;;;;43.17;34.50;;;;;;;;;;5014628;28;20639;-68
2023/04/17 00:34:08;;;;;;;48.50;37.47;;;;;;;;;;5015051;28;20200;-68
2023/04/17 00:36:34;;;;;;;52.27;38.90;;;;;;;;;;4997279;28;20180;-67
2023/04/17 00:39:00;;;;;;;47.10;37.83;;;;;;;;;;5014659;28;20188;-68
2023/04/17 00:41:26;;;;;;;48.67;36.73;;;;;;;;;;4996979;28;20282;-68
2023/04/17 00:43:52;;;;;;;52.57;38.17;;;;;;;;;;4996621;28;20665;-68
2023/04/17 00:46:18;;;;;;;47.93;35.63;;;;;;;;;;5014790;28;20164;-68
2023/04/17 00:48:44;;;;;;;47.20;36.80;;;;;;;;;;5014446;28;20662;-66
2023/04/17 00:51:10;;;;;;;49.00;36.97;;;;;;;;;;5014752;28;20183;-69
2023/04/17 00:53:36;;;;;;;48.17;38.00;;;;;;;;;;5014239;28;20195;-68
2023/04/17 00:56:05;;;;;;;46.60;37.03;;;;;;;;;;5013278;28;20196;-67
2023/04/17 00:58:32;;;;;;;48.23;37.60;;;;;;;;;;5014481;28;20175;-68
2023/04/17 01:00:58;;;;;;;49.53;35.90;;;;;;;;;;5014220;28;20238;-68
2023/04/17 01:03:25;;;;;;;49.07;37.43;;;;;;;;;;5014271;28;20215;-68
2023/04/17 01:05:51;;;;;;;49.30;38.03;;;;;;;;;;5014103;28;20194;-67
2023/04/17 01:08:17;;;;;;;51.87;38.13;;;;;;;;;;5014291;28;20183;-67
2023/04/17 01:10:44;;;;;;;49.93;36.50;;;;;;;;;;4996401;28;20211;-68
2023/04/17 01:13:10;;;;;;;48.00;37.43;;;;;;;;;;4996349;28;20191;-69
2023/04/17 01:15:36;;;;;;;51.50;38.03;;;;;;;;;;5013867;28;20261;-69
2023/04/17 01:18:02;;;;;;;48.27;36.67;;;;;;;;;;5014112;28;20230;-68
2023/04/17 01:20:29;;;;;;;47.97;37.57;;;;;;;;;;5013875;28;20188;-68
2023/04/17 01:22:55;;;;;;;50.90;37.70;;;;;;;;;;5013848;28;20207;-68
2023/04/17 01:25:21;;;;;;;52.73;39.53;;;;;;;;;;5013881;28;20245;-68
2023/04/17 01:27:47;;;;;;;53.10;38.63;;;;;;;;;;5013698;28;20183;-67
2023/04/17 01:30:13;;;;;;;49.50;39.10;;;;;;;;;;4996102;28;20295;-68
2023/04/17 01:32:40;;;;;;;53.40;38.60;;;;;;;;;;5013729;28;20258;-69
2023/04/17 01:35:06;;;;;;;55.87;39.20;;;;;;;;;;5013766;28;20206;-67
2023/04/17 01:37:32;;;;;;;51.87;38.27;;;;;;;;;;4996037;28;20176;-68
2023/04/17 01:39:58;;;;;;;53.20;39.30;;;;;;;;;;5013879;28;20187;-68
2023/04/17 01:42:25;;;;;;;49.53;39.60;;;;;;;;;;5013983;28;20294;-67
2023/04/17 01:44:51;;;;;;;53.27;39.87;;;;;;;;;;5013414;28;20237;-69
2023/04/17 01:47:17;;;;;;;52.17;41.40;;;;;;;;;;5014086;28;20180;-68
2023/04/17 01:49:42;;;;;;;53.10;40.13;;;;;;;;;;5014109;28;20234;-67
2023/04/17 01:52:08;;;;;;;57.60;39.70;;;;;;;;;;5014198;28;20278;-67
2023/04/17 01:54:34;;;;;;;62.67;43.67;;;;;;;;;;5013411;28;20761;-68
2023/04/17 01:57:01;;;;;;;53.90;42.87;;;;;;;;;;5014117;28;20647;-68
2023/04/17 01:59:27;;;;;;;56.03;43.27;;;;;;;;;;5013352;28;20176;-68
2023/04/17 02:01:55;;;;;;;56.50;41.23;;;;;;;;;;4995592;28;20268;-68
2023/04/17 02:04:21;;;;;;;55.37;42.50;;;;;;;;;;4995733;28;20277;-68
2023/04/17 02:06:47;;;;;;;54.87;42.87;;;;;;;;;;5013775;28;20203;-68
2023/04/17 02:09:13;;;;;;;58.53;41.83;;;;;;;;;;5017300;28;20549;-67
2023/04/17 02:11:39;;;;;;;63.63;44.57;;;;;;;;;;5017281;28;20642;-68
2023/04/17 02:14:05;;;;;;;55.13;42.83;;;;;;;;;;4999569;28;20200;-69
2023/04/17 02:16:31;;;;;;;60.70;42.93;;;;;;;;;;5017442;28;20184;-69
2023/04/17 02:18:57;;;;;;;57.27;43.73;;;;;;;;;;4999597;28;20266;-68
2023/04/17 02:21:23;;;;;;;59.87;42.77;;;;;;;;;;4999553;28;20180;-68
2023/04/17 02:23:49;;;;;;;60.87;46.53;;;;;;;;;;5016981;28;20254;-68
2023/04/17 02:26:15;;;;;;;61.70;44.13;;;;;;;;;;4999266;28;20172;-69
2023/04/17 02:28:44;;;;;;;63.00;44.53;;;;;;;;;;4999338;28;20187;-68
2023/04/17 02:31:10;;;;;;;58.60;43.80;;;;;;;;;;4999463;28;20184;-68
2023/04/17 02:33:36;;;;;;;59.87;45.17;;;;;;;;;;5017098;28;20188;-68
2023/04/17 02:36:03;;;;;;;60.50;45.27;;;;;;;;;;5016872;28;20208;-69
2023/04/17 02:38:29;;;;;;;70.60;47.53;;;;;;;;;;4999176;28;20643;-70
2023/04/17 02:40:55;;;;;;;70.07;49.20;;;;;;;;;;5016953;28;20183;-68
2023/04/17 02:43:21;;;;;;;69.03;49.23;;;;;;;;;;4999028;28;20211;-67
2023/04/17 02:45:47;;;;;;;68.53;47.27;;;;;;;;;;5016448;28;20299;-68
2023/04/17 02:48:13;;;;;;;65.00;46.97;;;;;;;;;;5016745;28;20183;-68
2023/04/17 02:50:39;;;;;;;66.23;46.97;;;;;;;;;;5016782;28;20176;-69
2023/04/17 02:53:05;;;;;;;75.13;49.60;;;;;;;;;;5016384;28;20655;-68
2023/04/17 02:55:31;;;;;;;69.27;48.57;;;;;;;;;;5016406;28;20257;-69
2023/04/17 02:57:57;;;;;;;66.90;48.67;;;;;;;;;;5016362;28;20234;-68
2023/04/17 03:00:25;;;;;;;67.67;47.33;;;;;;;;;;5016414;28;20677;-68
2023/04/17 03:02:51;;;;;;;67.67;49.30;;;;;;;;;;5016505;28;20199;-67
2023/04/17 03:05:19;;;;;;;72.97;49.93;;;;;;;;;;5016349;28;20302;-70
2023/04/17 03:07:45;;;;;;;70.40;49.87;;;;;;;;;;5016286;28;20175;-69
2023/04/17 03:10:11;;;;;;;69.37;49.43;;;;;;;;;;4998772;28;20280;-67
2023/04/17 03:12:37;;;;;;;71.17;49.07;;;;;;;;;;5016454;28;20645;-68
2023/04/17 03:15:03;;;;;;;67.07;47.93;;;;;;;;;;5016120;28;20206;-68
2023/04/17 03:17:29;;;;;;;65.90;48.50;;;;;;;;;;5016239;28;20707;-68
2023/04/17 03:19:55;;;;;;;59.60;42.37;;;;;;;;;;5015178;28;20204;-68
2023/04/17 03:22:21;;;;;;;66.63;48.43;;;;;;;;;;5016402;28;20677;-69
2023/04/17 03:24:46;;;;;;;69.03;48.33;;;;;;;;;;5016516;28;20278;-67
2023/04/17 03:27:13;;;;;;;68.63;48.97;;;;;;;;;;5016250;28;20187;-68
2023/04/17 03:29:39;;;;;;;73.07;49.40;;;;;;;;;;4998237;28;20179;-68
2023/04/17 03:32:05;;;;;;;72.60;50.37;;;;;;;;;;5015818;28;20184;-68
2023/04/17 03:34:31;;;;;;;68.37;49.13;;;;;;;;;;5015834;28;20249;-68
2023/04/17 03:36:57;;;;;;;74.27;50.30;;;;;;;;;;4998506;28;20537;-69
2023/04/17 03:39:23;;;;;;;69.67;49.43;;;;;;;;;;5015784;28;20184;-68
2023/04/17 03:41:49;;;;;;;73.77;49.87;;;;;;;;;;5015795;28;20183;-68
2023/04/17 03:44:16;;;;;;;73.00;48.03;;;;;;;;;;5015371;28;20262;-68
2023/04/17 03:46:42;;;;;;;70.33;49.10;;;;;;;;;;5015840;28;20166;-68
2023/04/17 03:49:08;;;;;;;67.67;49.07;;;;;;;;;;5015463;28;20180;-68
2023/04/17 03:51:34;;;;;;;70.20;50.27;;;;;;;;;;4997795;28;20184;-69
2023/04/17 03:54:00;;;;;;;66.07;44.47;;;;;;;;;;5015541;28;20184;-69
2023/04/17 03:56:26;;;;;;;71.07;49.60;;;;;;;;;;5016018;28;20230;-68
2023/04/17 03:58:52;;;;;;;69.70;49.07;;;;;;;;;;5015537;28;20176;-69
2023/04/17 04:01:18;;;;;;;67.40;48.13;;;;;;;;;;5015725;28;20183;-68
2023/04/17 04:03:44;;;;;;;74.03;51.60;;;;;;;;;;5015556;28;20204;-70
2023/04/17 04:06:10;;;;;;;76.57;52.07;;;;;;;;;;5015991;28;20179;-68
2023/04/17 04:08:36;;;;;;;74.93;51.63;;;;;;;;;;5015118;28;20176;-68
2023/04/17 04:11:02;;;;;;;71.13;51.63;;;;;;;;;;5015117;28;20700;-69
2023/04/17 04:13:28;;;;;;;76.83;50.67;;;;;;;;;;5015052;28;20642;-68
2023/04/17 04:15:54;;;;;;;75.50;51.67;;;;;;;;;;4997700;28;20204;-68
2023/04/17 04:18:20;;;;;;;74.90;50.13;;;;;;;;;;5014921;28;20672;-69
2023/04/17 04:20:46;;;;;;;76.73;50.67;;;;;;;;;;5015195;28;20216;-69
2023/04/17 04:23:12;;;;;;;75.97;51.63;;;;;;;;;;4997257;28;20212;-68
2023/04/17 04:25:40;;;;;;;75.47;51.17;;;;;;;;;;5014858;28;20195;-71
2023/04/17 04:28:06;;;;;;;79.90;52.17;;;;;;;;;;5014816;28;20230;-68
2023/04/17 04:30:34;;;;;;;68.10;49.73;;;;;;;;;;5014822;28;20206;-68
2023/04/17 04:33:04;;;;;;;75.13;50.13;;;;;;;;;;5014711;28;20172;-70
2023/04/17 04:35:30;;;;;;;71.93;50.63;;;;;;;;;;5014584;28;20557;-68
2023/04/17 04:38:00;;;;;;;75.87;51.73;;;;;;;;;;5014591;28;20179;-69
2023/04/17 04:40:27;;;;;;;75.90;51.60;;;;;;;;;;5015152;28;20199;-68
2023/04/17 04:42:54;;;;;;;71.90;49.87;;;;;;;;;;5014829;28;20554;-68
2023/04/17 04:45:20;;;;;;;70.43;50.60;;;;;;;;;;5014390;28;20216;-67
2023/04/17 04:47:46;;;;;;;68.93;50.13;;;;;;;;;;5015097;28;20657;-69
2023/04/17 04:50:12;;;;;;;67.83;48.87;;;;;;;;;;4997679;28;20183;-68
2023/04/17 04:52:38;;;;;;;70.50;50.07;;;;;;;;;;5014534;28;20700;-68
2023/04/17 04:55:05;;;;;;;70.00;50.67;;;;;;;;;;5014450;28;20205;-66
2023/04/17 04:57:31;;;;;;;70.57;51.17;;;;;;;;;;5014487;28;20557;-68
2023/04/17 04:59:57;;;;;;;72.73;51.87;;;;;;;;;;5014366;28;20179;-67
2023/04/17 05:02:23;;;;;;;77.93;53.47;;;;;;;;;;5014404;28;20237;-69
2023/04/17 05:04:49;;;;;;;73.10;53.33;;;;;;;;;;5014128;28;20203;-69
2023/04/17 05:07:15;;;;;;;74.97;53.20;;;;;;;;;;4996610;28;20558;-68
2023/04/17 05:09:41;;;;;;;69.03;52.90;;;;;;;;;;5014167;28;20180;-69
2023/04/17 05:12:07;;;;;;;75.87;52.87;;;;;;;;;;5038445;23;20203;-69
2023/04/17 05:14:33;;;;;;;70.70;51.30;;;;;;;;;;5016476;28;20206;-69
2023/04/17 05:17:00;;;;;;;68.33;50.80;;;;;;;;;;5034151;28;20676;-69
2023/04/17 05:19:26;;;;;;;71.17;50.87;;;;;;;;;;5033957;28;20175;-69
2023/04/17 05:21:52;;;;;;;68.10;51.63;;;;;;;;;;5017188;28;20695;-69
2023/04/17 05:24:18;;;;;;;67.27;51.10;;;;;;;;;;5015929;28;20176;-69
2023/04/17 05:26:44;;;;;;;80.03;52.87;;;;;;;;;;5015390;28;20184;-68
2023/04/17 05:29:10;;;;;;;72.13;52.77;;;;;;;;;;5014328;28;20657;-69
2023/04/17 05:31:36;;;;;;;72.57;51.93;;;;;;;;;;5014084;28;20176;-69
2023/04/17 05:34:02;;;;;;;70.90;51.40;;;;;;;;;;5013770;28;20207;-69
2023/04/17 05:36:30;;;;;;;70.83;52.43;;;;;;;;;;5013702;28;20630;-69
2023/04/17 05:38:56;;;;;;;77.30;51.80;;;;;;;;;;5015103;28;20176;-69
2023/04/17 05:41:22;;;;;;;81.67;54.00;;;;;;;;;;5012316;28;20180;-69
2023/04/17 05:43:48;;;;;;;78.00;53.93;;;;;;;;;;5013294;28;20238;-70
2023/04/17 05:46:14;;;;;;;76.40;54.70;;;;;;;;;;5014245;28;20622;-69
2023/04/17 05:48:40;;;;;;;81.77;57.77;;;;;;;;;;5013900;28;20630;-68
2023/04/17 05:51:06;;;;;;;71.63;54.47;;;;;;;;;;5012297;28;20630;-69
2023/04/17 05:53:32;;;;;;;64.80;44.87;;;;;;;;;;5012250;28;20715;-69
2023/04/17 05:55:58;;;;;;;75.13;53.30;;;;;;;;;;5013768;28;20175;-69
2023/04/17 05:58:24;;;;;;;66.27;46.70;;;;;;;;;;5013634;28;20553;-69
2023/04/17 06:00:50;;;;;;;64.97;49.77;;;;;;;;;;5013552;28;20183;-69
2023/04/17 06:03:16;;;;;;;60.10;41.00;;;;;;;;;;5012091;28;20222;-69
2023/04/17 06:05:42;;;;;;;58.63;45.27;;;;;;;;;;5013690;28;20225;-69
2023/04/17 06:08:08;;;;;;;63.30;46.10;;;;;;;;;;5013985;28;20263;-69
2023/04/17 06:10:35;;;;;;;60.00;46.03;;;;;;;;;;5012046;28;20176;-69
2023/04/17 06:13:02;;;;;;;62.53;47.30;;;;;;;;;;5013203;28;20242;-69
2023/04/17 06:15:28;;;;;;;61.10;44.63;;;;;;;;;;5011962;28;20658;-69
2023/04/17 06:17:54;;;;;;;61.57;45.47;;;;;;;;;;5012144;28;20198;-69
2023/04/17 06:20:20;;;;;;;61.20;44.23;;;;;;;;;;5012046;28;20176;-69
2023/04/17 06:22:46;;;;;;;54.40;42.73;;;;;;;;;;5013193;28;20270;-69
2023/04/17 06:25:12;;;;;;;55.47;42.97;;;;;;;;;;5013434;28;20204;-69
2023/04/17 06:27:38;;;;;;;54.93;43.23;;;;;;;;;;5014192;28;20194;-69
2023/04/17 06:30:04;;;;;;;57.00;44.27;;;;;;;;;;5014845;28;20619;-69
2023/04/17 06:32:30;;;;;;;55.20;43.27;;;;;;;;;;5011882;28;20258;-69
2023/04/17 06:34:56;;;;;;;59.03;46.07;;;;;;;;;;5011809;28;20650;-69
2023/04/17 06:37:22;;;;;;;57.90;43.83;;;;;;;;;;5013361;28;20626;-70
2023/04/17 06:39:48;;;;;;;50.80;39.23;;;;;;;;;;5013111;28;20176;-69
2023/04/17 06:42:17;;;;;;;53.33;42.70;;;;;;;;;;5013095;28;20212;-69
2023/04/17 06:44:43;;;;;;;51.37;42.03;;;;;;;;;;5012059;28;20187;-69
2023/04/17 06:47:09;;;;;;;56.47;44.10;;;;;;;;;;5013183;28;20171;-69
2023/04/17 06:49:35;;;;;;;54.67;42.27;;;;;;;;;;5013090;28;20210;-69
2023/04/17 06:52:01;;;;;;;55.70;43.37;;;;;;;;;;5012916;28;20184;-69
2023/04/17 06:54:27;;;;;;;54.50;42.80;;;;;;;;;;5014167;28;20180;-69
2023/04/17 06:56:53;;;;;;;49.20;40.37;;;;;;;;;;5015332;28;20206;-70
2023/04/17 06:59:19;;;;;;;53.50;42.83;;;;;;;;;;5015151;28;20199;-69
2023/04/17 07:01:45;;;;;;;47.40;38.43;;;;;;;;;;5016589;28;20183;-70
2023/04/17 07:04:11;;;;;;;54.00;39.63;;;;;;;;;;5015118;28;20199;-69
2023/04/17 07:06:38;;;;;;;49.47;39.93;;;;;;;;;;5016263;28;20179;-70
2023/04/17 07:09:04;;;;;;;52.17;38.40;;;;;;;;;;5016312;28;20263;-70
2023/04/17 07:11:31;;;;;;;45.00;36.10;;;;;;;;;;5016120;28;20172;-69
2023/04/17 07:13:57;;;;;;;44.37;34.00;;;;;;;;;;5014589;28;20219;-70
2023/04/17 07:16:23;;;;;;;46.70;37.30;;;;;;;;;;5014730;28;20184;-70
2023/04/17 07:18:50;;;;;;;46.73;36.23;;;;;;;;;;5014862;28;20184;-69
2023/04/17 07:21:16;;;;;;;39.90;32.33;;;;;;;;;;5016444;28;20194;-70
2023/04/17 07:23:42;;;;;;;53.47;40.03;;;;;;;;;;5015753;28;20269;-69
2023/04/17 07:26:08;;;;;;;47.90;37.23;;;;;;;;;;5016170;28;20250;-69
2023/04/17 07:28:36;;;;;;;42.60;33.50;;;;;;;;;;5016305;28;20217;-69
2023/04/17 07:31:03;;;;;;;46.00;37.77;;;;;;;;;;5014515;28;20678;-69
2023/04/17 07:33:29;;;;;;;45.23;36.33;;;;;;;;;;5015851;28;20195;-69
2023/04/17 07:35:55;;;;;;;41.23;34.20;;;;;;;;;;5014477;28;20600;-69
2023/04/17 07:38:21;;;;;;;45.47;38.73;;;;;;;;;;5014271;28;20184;-69
2023/04/17 07:40:47;;;;;;;44.60;37.73;;;;;;;;;;5015678;28;20179;-69
2023/04/17 07:43:14;;;;;;;45.03;37.37;;;;;;;;;;5015455;28;20207;-69
2023/04/17 07:45:40;;;;;;;42.13;36.63;;;;;;;;;;5014274;28;20192;-69
2023/04/17 07:48:06;;;;;;;43.83;36.10;;;;;;;;;;5014199;28;20261;-69
2023/04/17 07:50:31;;;;;;;43.20;33.83;;;;;;;;;;5014179;28;20259;-69
2023/04/17 07:52:57;;;;;;;42.30;34.10;;;;;;;;;;5015310;28;20279;-69
2023/04/17 07:55:23;;;;;;;36.20;30.23;;;;;;;;;;5014047;28;20269;-70
2023/04/17 07:57:50;;;;;;;40.30;31.43;;;;;;;;;;5014046;28;20180;-69
2023/04/17 08:00:16;;;;;;;39.60;30.70;;;;;;;;;;5015380;28;20175;-69
2023/04/17 08:02:43;;;;;;;40.80;32.97;;;;;;;;;;5014007;28;20694;-69
2023/04/17 08:05:09;;;;;;;39.23;34.50;;;;;;;;;;5015089;28;20226;-69
2023/04/17 08:07:35;;;;;;;35.20;27.70;;;;;;;;;;5013920;28;20187;-69
2023/04/17 08:10:02;;;;;;;37.87;27.63;;;;;;;;;;5013895;28;20713;-69
2023/04/17 08:12:27;;;;;;;41.70;30.30;;;;;;;;;;5016114;28;20269;-69
2023/04/17 08:14:53;;;;;;;40.47;31.43;;;;;;;;;;5015433;28;20188;-69
2023/04/17 08:17:21;;;;;;;42.13;32.23;;;;;;;;;;5014899;28;20179;-68
2023/04/17 08:19:52;;;;;;;39.00;31.57;;;;;;;;;;5013805;28;20193;-69
2023/04/17 08:22:20;;;;;;;38.90;32.73;;;;;;;;;;5015452;28;20696;-68
2023/04/17 08:24:46;;;;;;;42.00;30.07;;;;;;;;;;5014867;28;20178;-69
2023/04/17 08:27:13;;;;;;;42.37;36.27;;;;;;;;;;5015041;28;20229;-68
2023/04/17 08:29:39;;;;;;;34.97;27.87;;;;;;;;;;5014796;28;20182;-68
2023/04/17 08:32:05;;;;;;;42.30;35.70;;;;;;;;;;5014758;28;20184;-69
2023/04/17 08:34:31;;;;;;;38.90;32.53;;;;;;;;;;5013562;28;20279;-69
2023/04/17 08:36:57;;;;;;;43.93;37.00;;;;;;;;;;5014801;28;20203;-69
2023/04/17 08:39:23;;;;;;;43.63;34.10;;;;;;;;;;5013360;28;20202;-69
2023/04/17 08:41:52;;;;;;;38.27;33.37;;;;;;;;;;5013624;28;20637;-69
2023/04/17 08:44:22;;;;;;;43.87;34.90;;;;;;;;;;5014484;28;20546;-68
2023/04/17 08:46:49;;;;;;;40.80;33.00;;;;;;;;;;5014538;28;20179;-68
2023/04/17 08:49:15;;;;;;;40.03;32.50;;;;;;;;;;5013241;28;20812;-68
2023/04/17 08:51:41;;;;;;;39.90;33.23;;;;;;;;;;5014530;28;20176;-69
2023/04/17 08:54:07;;;;;;;32.13;23.60;;;;;;;;;;5013064;28;20227;-69
2023/04/17 08:56:33;;;;;;;39.10;35.00;;;;;;;;;;5013154;28;20542;-71
2023/04/17 08:58:59;;;;;;;40.77;35.83;;;;;;;;;;5014379;28;20561;-69
2023/04/17 09:01:28;;;;;;;34.50;30.63;;;;;;;;;;5014631;28;20220;-69
2023/04/17 09:03:55;;;;;;;39.13;34.23;;;;;;;;;;5013475;28;20215;-69
2023/04/17 09:06:21;;;;;;;38.97;33.70;;;;;;;;;;5013520;28;20677;-69
2023/04/17 09:08:55;;;;;;;39.07;34.00;;;;;;;;;;5013097;28;20183;-68
2023/04/17 09:11:22;;;;;;;35.57;28.40;;;;;;;;;;5012980;28;20222;-68
2023/04/17 09:13:48;;;;;;;48.07;35.77;;;;;;;;;;5013993;28;20207;-69
2023/04/17 09:16:18;;;;;;;41.70;34.67;;;;;;;;;;5012572;28;20195;-69
2023/04/17 09:18:45;;;;;;;44.17;35.80;;;;;;;;;;5012295;28;20195;-68
2023/04/17 09:21:11;;;;;;;46.73;34.80;;;;;;;;;;5014138;28;20172;-68
2023/04/17 09:23:51;;;;;;;41.70;34.13;;;;;;;;;;5012803;28;20303;-69
2023/04/17 09:26:19;;;;;;;38.60;32.53;;;;;;;;;;5014207;28;20206;-69
2023/04/17 09:29:13;;;;;;;42.33;32.63;;;;;;;;;;5014035;28;20186;-69
2023/04/17 09:31:40;;;;;;;39.63;32.57;;;;;;;;;;5013856;28;20160;-69
2023/04/17 09:34:07;;;;;;;39.40;30.13;;;;;;;;;;5012460;28;20222;-69
2023/04/17 09:36:34;;;;;;;34.10;30.40;;;;;;;;;;5013893;28;20234;-68
2023/04/17 09:39:03;;;;;;;36.30;32.03;;;;;;;;;;5012704;28;20194;-68
2023/04/17 09:41:37;;;;;;;38.07;32.20;;;;;;;;;;5012551;28;20219;-69
2023/04/17 09:44:05;;;;;;;36.47;32.27;;;;;;;;;;5013821;28;20226;-69
2023/04/17 09:46:32;;;;;;;34.67;29.57;;;;;;;;;;5013543;28;20180;-69
2023/04/17 09:49:00;;;;;;;32.47;28.93;;;;;;;;;;5013814;28;20172;-69
2023/04/17 09:51:26;;;;;;;35.00;28.17;;;;;;;;;;5012797;28;20187;-69
2023/04/17 09:53:55;;;;;;;32.40;28.90;;;;;;;;;;5014040;28;20204;-68
2023/04/17 09:56:23;;;;;;;32.60;28.37;;;;;;;;;;5016125;28;20176;-69
2023/04/17 09:58:50;;;;;;;29.10;25.83;;;;;;;;;;5015229;28;20187;-69
2023/04/17 10:01:16;;;;;;;27.83;23.97;;;;;;;;;;5012447;28;20191;-69
2023/04/17 10:03:42;;;;;;;27.83;21.97;;;;;;;;;;5011824;28;20219;-68
2023/04/17 10:06:08;;;;;;;29.37;21.90;;;;;;;;;;5012230;28;20184;-69
2023/04/17 10:08:35;;;;;;;22.87;20.33;;;;;;;;;;5013947;28;20712;-69
2023/04/17 10:11:03;;;;;;;21.50;19.30;;;;;;;;;;5013303;28;20650;-69
2023/04/17 10:13:29;;;;;;;22.70;16.67;;;;;;;;;;5011957;28;20215;-68
2023/04/17 10:15:55;;;;;;;19.23;14.00;;;;;;;;;;5013693;28;20227;-68
2023/04/17 10:18:22;;;;;;;21.17;17.17;;;;;;;;;;5012054;28;20242;-69
2023/04/17 10:20:48;;;;;;;20.33;17.73;;;;;;;;;;5013393;28;20692;-69
2023/04/17 10:23:25;;;;;;;25.90;17.97;;;;;;;;;;5013375;28;20295;-69
2023/04/17 10:26:13;;;;;;;17.13;15.33;;;;;;;;;;5013402;28;20656;-69
2023/04/17 10:28:49;;;;;;;19.33;15.13;;;;;;;;;;5014779;28;20210;-69
2023/04/17 10:31:15;;;;;;;15.93;14.20;;;;;;;;;;5015668;28;20232;-70
2023/04/17 10:33:48;;;;;;;19.10;17.10;;;;;;;;;;5015770;28;20199;-69
2023/04/17 10:36:33;;;;;;;17.20;12.03;;;;;;;;;;5016932;28;20191;-69
2023/04/17 10:39:25;;;;;;;19.87;17.07;;;;;;;;;;5015680;28;20610;-69
2023/04/17 10:42:04;;;;;;;19.90;17.83;;;;;;;;;;5013686;28;20195;-69
2023/04/17 10:44:34;;;;;;;19.30;17.20;;;;;;;;;;5016393;28;20192;-69
2023/04/17 10:47:07;;;;;;;19.53;17.07;;;;;;;;;;5016509;28;20190;-69
2023/04/17 10:49:46;;;;;;;22.97;17.60;;;;;;;;;;5020655;28;20180;-69
2023/04/17 10:52:33;;;;;;;20.80;17.20;;;;;;;;;;5018078;28;20188;-69
2023/04/17 10:55:03;;;;;;;19.67;15.93;;;;;;;;;;5016616;28;20172;-69
2023/04/17 10:57:52;;;;;;;18.27;15.97;;;;;;;;;;5017030;28;20180;-69
2023/04/17 11:00:18;;;;;;;17.77;15.77;;;;;;;;;;5006461;28;20255;-69
2023/04/17 11:02:45;;;;;;;19.03;17.03;;;;;;;;;;5016595;28;20207;-69
2023/04/17 11:05:11;;;;;;;18.43;15.57;;;;;;;;;;5016658;28;20204;-68
2023/04/17 11:07:37;;;;;;;23.20;15.23;;;;;;;;;;5015284;28;20271;-69
2023/04/17 11:10:06;;;;;;;16.77;14.47;;;;;;;;;;5015283;28;20590;-69
2023/04/17 11:12:32;;;;;;;12.47;10.03;;;;;;;;;;5015030;28;20212;-68
2023/04/17 11:15:02;;;;;;;14.07;11.27;;;;;;;;;;5016722;28;20203;-69
2023/04/17 11:17:28;;;;;;;15.80;12.30;;;;;;;;;;5016769;28;20191;-68
2023/04/17 11:19:55;;;;;;;19.13;12.23;;;;;;;;;;5016241;28;20191;-68
2023/04/17 11:22:21;;;;;;;12.10;10.83;;;;;;;;;;5016250;28;20212;-69
2023/04/17 11:24:50;;;;;;;17.70;12.53;;;;;;;;;;5015948;28;20569;-68
2023/04/17 11:27:16;;;;;;;15.50;13.07;;;;;;;;;;5014694;28;20269;-69
2023/04/17 11:29:44;;;;;;;15.40;11.47;;;;;;;;;;5014809;28;20180;-69
2023/04/17 11:32:11;;;;;;;18.40;13.53;;;;;;;;;;5014538;28;20276;-69
2023/04/17 11:34:37;;;;;;;14.83;12.90;;;;;;;;;;5014394;28;20639;-68
2023/04/17 11:37:03;;;;;;;17.70;11.53;;;;;;;;;;5015762;28;20175;-68
2023/04/17 11:39:31;;;;;;;13.70;12.27;;;;;;;;;;5015635;28;20223;-69
2023/04/17 11:41:57;;;;;;;16.20;11.87;;;;;;;;;;5014242;28;20180;-68
2023/04/17 11:44:24;;;;;;;14.83;12.87;;;;;;;;;;5015582;28;20601;-69
2023/04/17 11:46:50;;;;;;;15.17;12.23;;;;;;;;;;5014446;28;20230;-69
2023/04/17 11:49:22;;;;;;;13.63;11.40;;;;;;;;;;5014631;28;20587;-69
2023/04/17 11:51:48;;;;;;;11.73;10.13;;;;;;;;;;5015529;28;20243;-69
2023/04/17 11:54:20;;;;;;;15.10;8.83;;;;;;;;;;5015452;28;20223;-69
2023/04/17 11:57:12;;;;;;;13.00;10.23;;;;;;;;;;4997887;28;20675;-69
2023/04/17 11:59:40;;;;;;;12.03;10.80;;;;;;;;;;5012570;28;20226;-69
2023/04/17 12:02:07;;;;;;;11.33;10.00;;;;;;;;;;5013785;28;20650;-68
2023/04/17 12:04:34;;;;;;;13.73;10.43;;;;;;;;;;5015155;28;20262;-68
2023/04/17 12:07:01;;;;;;;10.87;9.30;;;;;;;;;;5013858;28;20176;-67
2023/04/17 12:09:30;;;;;;;12.10;9.87;;;;;;;;;;4997688;28;20185;-68
2023/04/17 12:11:57;;;;;;;12.60;8.20;;;;;;;;;;4998719;28;20674;-69
2023/04/17 12:14:23;;;;;;;10.87;8.67;;;;;;;;;;4997367;28;20179;-68
2023/04/17 12:16:50;;;;;;;11.97;8.57;;;;;;;;;;5015102;28;20696;-69
2023/04/17 12:19:18;;;;;;;15.70;9.87;;;;;;;;;;4997253;28;20171;-69
2023/04/17 12:21:45;;;;;;;12.63;8.80;;;;;;;;;;4997597;28;20180;-69
2023/04/17 12:24:11;;;;;;;12.17;9.13;;;;;;;;;;5014679;28;20266;-69
2023/04/17 12:26:45;;;;;;;12.17;9.77;;;;;;;;;;4997273;28;20267;-68
2023/04/17 12:29:11;;;;;;;8.87;7.23;;;;;;;;;;5014731;28;20584;-69
2023/04/17 12:31:37;;;;;;;11.87;9.70;;;;;;;;;;4997221;28;20180;-69
2023/04/17 12:34:03;;;;;;;9.60;8.17;;;;;;;;;;5015075;28;20287;-69
2023/04/17 12:36:29;;;;;;;13.17;7.00;;;;;;;;;;4997406;28;20669;-72
2023/04/17 12:38:55;;;;;;;12.90;8.93;;;;;;;;;;5001574;28;20190;-69
2023/04/17 12:41:21;;;;;;;9.93;7.57;;;;;;;;;;5014782;28;20180;-69
2023/04/17 12:43:47;;;;;;;10.43;8.70;;;;;;;;;;5021139;23;20231;-71
2023/04/17 12:46:13;;;;;;;10.23;7.67;;;;;;;;;;5014758;28;20183;-73
2023/04/17 12:48:39;;;;;;;7.80;7.00;;;;;;;;;;4997007;28;20673;-72
2023/04/17 12:51:05;;;;;;;9.13;7.57;;;;;;;;;;5014410;28;20184;-73
2023/04/17 12:53:31;;;;;;;9.57;6.97;;;;;;;;;;5014054;28;20188;-73
2023/04/17 12:55:57;;;;;;;8.53;6.50;;;;;;;;;;5014614;28;20274;-73
2023/04/17 12:58:23;;;;;;;10.37;6.77;;;;;;;;;;4997057;28;20622;-73
2023/04/17 13:00:49;;;;;;;13.10;6.70;;;;;;;;;;4997092;28;20646;-73
2023/04/17 13:03:15;;;;;;;8.77;6.60;;;;;;;;;;5014422;28;20216;-73
2023/04/17 13:05:41;;;;;;;8.63;6.90;;;;;;;;;;4996927;28;20215;-73
2023/04/17 13:08:13;;;;;;;8.23;7.10;;;;;;;;;;5014198;28;20199;-73
2023/04/17 13:10:40;;;;;;;8.77;6.43;;;;;;;;;;5014876;28;20160;-73
2023/04/17 13:13:07;;;;;;;8.17;5.47;;;;;;;;;;5014140;28;20208;-73
2023/04/17 13:15:33;;;;;;;11.07;6.20;;;;;;;;;;4996688;28;20187;-73
2023/04/17 13:17:59;;;;;;;11.57;5.30;;;;;;;;;;5014111;28;20184;-73
2023/04/17 13:20:25;;;;;;;8.30;6.07;;;;;;;;;;5014237;28;20206;-73
2023/04/17 13:22:50;;;;;;;8.27;6.90;;;;;;;;;;5013986;28;20669;-73
2023/04/17 13:25:16;;;;;;;11.90;7.60;;;;;;;;;;5014458;28;20183;-73
2023/04/17 13:27:42;;;;;;;11.40;7.30;;;;;;;;;;4996719;28;20187;-74
2023/04/17 13:30:09;;;;;;;9.83;7.80;;;;;;;;;;4997087;28;20180;-73
2023/04/17 13:32:35;;;;;;;9.40;7.47;;;;;;;;;;5014832;28;20195;-73
2023/04/17 13:35:01;;;;;;;11.87;8.47;;;;;;;;;;4998871;28;20290;-72
2023/04/17 13:37:27;;;;;;;13.37;9.07;;;;;;;;;;5004755;28;20271;-72
2023/04/17 13:39:53;;;;;;;8.03;7.17;;;;;;;;;;5005457;28;20219;-72
2023/04/17 13:42:19;;;;;;;9.43;8.23;;;;;;;;;;5022189;28;20257;-73
2023/04/17 13:44:46;;;;;;;9.20;7.70;;;;;;;;;;5022006;28;20330;-73
2023/04/17 13:47:12;;;;;;;11.30;8.40;;;;;;;;;;4996785;28;20176;-73
2023/04/17 13:49:38;;;;;;;11.83;8.50;;;;;;;;;;4996344;28;20202;-73
2023/04/17 13:52:04;;;;;;;11.30;8.23;;;;;;;;;;4996461;28;20674;-73
2023/04/17 13:54:30;;;;;;;12.27;8.37;;;;;;;;;;4996250;28;20204;-74
2023/04/17 13:56:57;;;;;;;10.23;9.03;;;;;;;;;;5013814;28;20176;-73
2023/04/17 13:59:23;;;;;;;10.60;9.50;;;;;;;;;;4996285;28;20180;-73
2023/04/17 14:01:49;;;;;;;9.97;8.93;;;;;;;;;;5014084;28;20180;-73
2023/04/17 14:04:15;;;;;;;10.27;8.07;;;;;;;;;;5016068;28;20238;-74
2023/04/17 14:06:43;;;;;;;13.70;10.13;;;;;;;;;;5017887;28;20719;-73
2023/04/17 14:09:09;;;;;;;14.23;9.53;;;;;;;;;;5018040;28;20263;-73
2023/04/17 14:11:35;;;;;;;9.87;8.03;;;;;;;;;;5000398;28;20206;-76
2023/04/17 14:14:01;;;;;;;10.47;9.37;;;;;;;;;;5018082;28;20689;-74
2023/04/17 14:16:27;;;;;;;10.37;9.30;;;;;;;;;;5018575;28;20662;-75